createdAt,value
2023-05-10T00:00:41.099Z,3.50
2023-05-10T00:03:26.732Z,3.70
2023-05-10T00:06:12.566Z,3.20
2023-05-10T00:08:58.226Z,2.70
2023-05-10T00:11:43.500Z,2.70
2023-05-10T00:14:29.610Z,2.40
2023-05-10T00:17:15.216Z,2.80
2023-05-10T00:20:00.827Z,2.40
2023-05-10T00:22:46.388Z,3.40
2023-05-10T00:25:32.090Z,2.70
2023-05-10T00:28:17.331Z,2.60
2023-05-10T00:31:03.472Z,2.50
2023-05-10T00:33:49.025Z,2.50
2023-05-10T00:36:34.685Z,2.30
2023-05-10T00:39:20.571Z,2.50
2023-05-10T00:42:05.946Z,2.70
2023-05-10T00:44:52.172Z,2.90
2023-05-10T00:47:38.818Z,2.90
2023-05-10T00:50:24.486Z,3.50
2023-05-10T00:53:10.755Z,3.00
2023-05-10T00:55:57.291Z,3.30
2023-05-10T00:58:43.539Z,3.30
2023-05-10T01:05:00.551Z,2.70
2023-05-10T01:07:46.333Z,2.50
2023-05-10T01:10:32.353Z,2.70
2023-05-10T01:13:31.229Z,2.70
2023-05-10T01:16:17.552Z,2.60
2023-05-10T01:19:13.096Z,2.60
2023-05-10T01:22:31.656Z,2.30
2023-05-10T01:25:20.592Z,2.20
2023-05-10T01:28:06.224Z,2.80
2023-05-10T01:35:53.608Z,2.40
2023-05-10T01:42:48.338Z,2.40
2023-05-10T01:45:51.224Z,2.90
2023-05-10T01:48:48.069Z,5.10
2023-05-10T01:51:42.547Z,3.20
2023-05-10T01:54:29.938Z,2.70
2023-05-10T01:57:19.263Z,2.60
2023-05-10T02:00:08.705Z,2.30
2023-05-10T02:03:04.711Z,2.10
2023-05-10T02:05:52.575Z,2.40
2023-05-10T02:08:54.795Z,2.90
2023-05-10T02:15:22.109Z,3.20
2023-05-10T02:21:31.702Z,4.10
2023-05-10T02:27:24.624Z,3.50
2023-05-10T02:30:11.862Z,2.80
2023-05-10T02:32:59.305Z,2.70
2023-05-10T02:35:47.231Z,2.90
2023-05-10T02:38:34.544Z,2.80
2023-05-10T02:41:23.079Z,3.50
2023-05-10T02:44:10.069Z,3.20
2023-05-10T02:46:56.463Z,3.00
2023-05-10T02:49:42.121Z,3.50
2023-05-10T02:52:31.472Z,3.40
2023-05-10T02:55:21.855Z,4.40
2023-05-10T02:58:07.418Z,3.00
2023-05-10T03:00:53.005Z,3.80
2023-05-10T03:03:38.499Z,3.40
2023-05-10T03:06:24.108Z,4.10
2023-05-10T03:09:11.633Z,3.50
2023-05-10T03:12:03.250Z,3.10
2023-05-10T03:15:05.481Z,3.90
2023-05-10T03:18:04.856Z,6.90
2023-05-10T03:20:59.881Z,7.30
2023-05-10T03:24:03.976Z,5.70
2023-05-10T03:26:54.328Z,3.70
2023-05-10T03:29:40.629Z,4.70
2023-05-10T03:32:27.609Z,6.10
2023-05-10T03:35:16.415Z,6.30
2023-05-10T03:38:03.051Z,3.80
2023-05-10T03:40:48.895Z,5.00
2023-05-10T03:43:34.275Z,3.90
2023-05-10T03:46:22.023Z,4.80
2023-05-10T03:49:07.639Z,3.40
2023-05-10T03:51:53.407Z,3.50
2023-05-10T03:54:38.715Z,3.90
2023-05-10T03:57:24.256Z,3.20
2023-05-10T04:00:11.066Z,3.70
2023-05-10T04:03:03.030Z,3.20
2023-05-10T04:05:48.685Z,5.60
2023-05-10T04:08:34.421Z,3.60
2023-05-10T04:11:22.349Z,4.80
2023-05-10T04:14:08.092Z,4.00
2023-05-10T04:16:53.619Z,5.70
2023-05-10T04:19:39.028Z,6.40
2023-05-10T04:22:24.908Z,6.10
2023-05-10T04:25:10.259Z,6.00
2023-05-10T04:27:55.336Z,3.90
2023-05-10T04:30:40.879Z,6.90
2023-05-10T04:33:26.630Z,5.20
2023-05-10T04:36:12.078Z,3.20
2023-05-10T04:38:58.788Z,4.10
2023-05-10T04:41:45.049Z,4.90
2023-05-10T04:44:31.110Z,3.60
2023-05-10T04:47:16.772Z,4.10
2023-05-10T04:50:02.265Z,3.80
2023-05-10T04:52:47.486Z,3.00
2023-05-10T04:55:33.149Z,2.90
2023-05-10T04:58:18.747Z,3.50
2023-05-10T05:01:10.963Z,3.90
2023-05-10T05:03:57.001Z,3.70
2023-05-10T05:06:45.425Z,2.60
2023-05-10T05:09:34.628Z,2.90
2023-05-10T05:12:23.133Z,2.90
2023-05-10T05:15:10.151Z,2.60
2023-05-10T05:17:55.785Z,3.00
2023-05-10T05:20:41.672Z,2.90
2023-05-10T05:23:27.345Z,3.20
2023-05-10T05:26:12.879Z,2.90
2023-05-10T05:28:58.380Z,2.10
2023-05-10T05:31:43.697Z,3.40
2023-05-10T05:34:31.168Z,2.30
2023-05-10T05:37:19.351Z,2.90
2023-05-10T05:40:05.795Z,2.50
2023-05-10T05:42:51.327Z,2.70
2023-05-10T05:45:36.690Z,2.90
2023-05-10T05:48:22.397Z,2.70
2023-05-10T05:51:08.232Z,3.80
2023-05-10T05:53:53.942Z,3.00
2023-05-10T05:56:39.332Z,3.10
2023-05-10T06:02:14.822Z,2.80
2023-05-10T06:05:01.664Z,2.60
2023-05-10T06:07:50.668Z,2.60
2023-05-10T06:10:37.173Z,3.20
2023-05-10T06:13:22.868Z,4.50
2023-05-10T06:16:08.713Z,2.70
2023-05-10T06:18:54.484Z,2.10
2023-05-10T06:21:40.474Z,2.30
2023-05-10T06:24:27.528Z,3.60
2023-05-10T06:27:12.965Z,2.60
2023-05-10T06:30:11.611Z,2.10
2023-05-10T06:32:59.792Z,2.50
2023-05-10T06:35:48.343Z,2.30
2023-05-10T06:38:34.841Z,2.50
2023-05-10T06:41:24.743Z,2.50
2023-05-10T06:44:15.068Z,2.30
2023-05-10T06:47:02.286Z,2.60
2023-05-10T06:49:56.517Z,3.50
2023-05-10T06:52:46.025Z,2.40
2023-05-10T06:55:31.551Z,2.20
2023-05-10T06:58:19.707Z,1.80
2023-05-10T07:01:05.919Z,2.60
2023-05-10T07:03:51.747Z,2.70
2023-05-10T07:06:37.367Z,2.50
2023-05-10T07:09:24.025Z,3.40
2023-05-10T07:12:12.150Z,3.00
2023-05-10T07:14:59.218Z,3.10
2023-05-10T07:17:46.306Z,2.70
2023-05-10T07:20:31.983Z,3.30
2023-05-10T07:23:21.428Z,1.80
2023-05-10T07:26:17.029Z,2.00
2023-05-10T07:29:03.690Z,2.50
2023-05-10T07:31:57.941Z,4.70
2023-05-10T07:34:44.252Z,1.40
2023-05-10T07:37:35.280Z,1.70
2023-05-10T07:40:23.282Z,1.80
2023-05-10T07:43:10.145Z,1.60
2023-05-10T07:45:57.899Z,2.50
2023-05-10T07:48:43.295Z,2.70
2023-05-10T07:51:29.044Z,2.40
2023-05-10T07:54:16.004Z,1.20
2023-05-10T07:57:01.620Z,4.20
2023-05-10T07:59:47.314Z,1.90
2023-05-10T08:02:34.406Z,5.30
2023-05-10T08:05:20.282Z,2.40
2023-05-10T08:08:05.608Z,2.10
2023-05-10T08:10:51.291Z,26.30
2023-05-10T08:13:36.669Z,2.30
2023-05-10T08:16:22.313Z,2.30
2023-05-10T08:19:07.868Z,2.80
2023-05-10T08:21:55.827Z,1.60
2023-05-10T08:24:42.401Z,1.80
2023-05-10T08:27:27.600Z,4.10
2023-05-10T08:30:13.489Z,1.70
2023-05-10T08:33:00.836Z,1.30
2023-05-10T08:35:46.116Z,1.40
2023-05-10T08:38:31.768Z,2.40
2023-05-10T08:41:21.302Z,1.80
2023-05-10T08:44:12.391Z,1.50
2023-05-10T08:47:03.828Z,1.40
2023-05-10T08:49:51.606Z,1.40
2023-05-10T08:52:41.439Z,1.50
2023-05-10T08:55:33.904Z,1.50
2023-05-10T08:58:20.068Z,1.20
2023-05-10T09:01:06.163Z,5.40
2023-05-10T09:03:51.651Z,1.80
2023-05-10T09:06:37.851Z,1.70
2023-05-10T09:09:25.811Z,1.20
2023-05-10T09:12:12.685Z,1.40
2023-05-10T09:15:00.503Z,1.80
2023-05-10T09:17:47.759Z,1.20
2023-05-10T09:20:35.000Z,1.40
2023-05-10T09:26:49.364Z,1.30
2023-05-10T09:33:22.706Z,1.20
2023-05-10T09:36:09.019Z,1.20
2023-05-10T09:38:55.321Z,1.50
2023-05-10T09:41:55.383Z,2.50
2023-05-10T09:44:43.957Z,1.20
2023-05-10T09:47:29.547Z,1.70
2023-05-10T09:50:15.453Z,1.20
2023-05-10T09:53:03.829Z,1.90
2023-05-10T09:55:52.492Z,1.60
2023-05-10T09:58:42.524Z,1.40
2023-05-10T10:01:32.466Z,1.00
2023-05-10T10:04:27.856Z,3.90
2023-05-10T10:07:13.916Z,2.10
2023-05-10T10:10:02.971Z,3.20
2023-05-10T10:12:49.073Z,1.20
2023-05-10T10:18:30.553Z,1.10
2023-05-10T10:24:25.696Z,1.10
2023-05-10T10:27:20.836Z,2.10
2023-05-10T10:30:44.403Z,1.20
2023-05-10T10:34:07.691Z,1.10
2023-05-10T10:36:57.025Z,1.30
2023-05-10T10:39:42.547Z,1.50
2023-05-10T10:42:50.169Z,2.20
2023-05-10T10:45:42.495Z,1.40
2023-05-10T10:48:29.081Z,1.00
2023-05-10T10:51:15.457Z,8.90
2023-05-10T10:54:10.629Z,2.40
2023-05-10T11:01:16.500Z,2.30
2023-05-10T11:04:05.956Z,2.40
2023-05-10T11:07:11.456Z,2.10
2023-05-10T11:10:05.308Z,1.70
2023-05-10T11:13:01.313Z,1.90
2023-05-10T11:15:50.280Z,1.50
2023-05-10T11:18:37.717Z,1.90
2023-05-10T11:21:23.583Z,1.30
2023-05-10T11:24:14.523Z,2.60
2023-05-10T11:27:04.456Z,1.20
2023-05-10T11:30:08.448Z,1.30
2023-05-10T11:32:56.054Z,1.50
2023-05-10T11:35:43.616Z,1.90
2023-05-10T11:38:36.128Z,1.20
2023-05-10T11:41:24.810Z,1.60
2023-05-10T11:44:11.093Z,1.30
2023-05-10T11:47:00.161Z,2.70
2023-05-10T11:49:46.031Z,1.30
2023-05-10T11:52:38.031Z,1.20
2023-05-10T11:55:26.861Z,1.30
2023-05-10T11:58:12.264Z,1.50
2023-05-10T12:00:59.095Z,1.30
2023-05-10T12:03:44.915Z,1.90
2023-05-10T12:06:40.910Z,1.40
2023-05-10T12:09:39.644Z,1.10
2023-05-10T12:12:26.656Z,1.70
2023-05-10T12:15:23.815Z,1.20
2023-05-10T12:18:10.996Z,1.20
2023-05-10T12:21:04.665Z,1.30
2023-05-10T12:23:56.915Z,1.30
2023-05-10T12:26:42.564Z,1.30
2023-05-10T12:29:30.933Z,1.30
2023-05-10T12:32:16.390Z,1.60
2023-05-10T12:35:04.514Z,1.30
2023-05-10T12:37:52.914Z,1.10
2023-05-10T12:40:38.281Z,1.80
2023-05-10T12:43:23.808Z,1.00
2023-05-10T12:46:19.177Z,1.00
2023-05-10T12:49:09.465Z,1.90
2023-05-10T12:51:56.221Z,1.10
2023-05-10T12:54:57.010Z,1.10
2023-05-10T12:57:42.274Z,1.40
2023-05-10T13:00:27.843Z,1.90
2023-05-10T13:03:16.218Z,2.90
2023-05-10T13:06:01.947Z,1.40
2023-05-10T13:08:47.342Z,1.10
2023-05-10T13:11:37.386Z,1.20
2023-05-10T13:14:25.685Z,1.30
2023-05-10T13:17:19.178Z,2.80
2023-05-10T13:20:16.588Z,1.00
2023-05-10T13:23:03.432Z,1.00
2023-05-10T13:25:49.441Z,1.10
2023-05-10T13:28:35.334Z,0.90
2023-05-10T13:31:21.326Z,2.70
2023-05-10T13:34:07.183Z,2.10
2023-05-10T13:36:55.662Z,4.70
2023-05-10T13:39:41.033Z,1.00
2023-05-10T13:42:27.603Z,4.90
2023-05-10T13:45:13.538Z,3.50
2023-05-10T13:47:58.910Z,1.20
2023-05-10T13:50:44.167Z,10.30
2023-05-10T13:53:30.016Z,15.20
2023-05-10T13:56:16.476Z,4.40
2023-05-10T13:59:02.385Z,2.90
2023-05-10T14:01:47.729Z,1.10
2023-05-10T14:07:20.188Z,4.10
2023-05-10T14:10:06.665Z,10.70
2023-05-10T14:12:52.584Z,2.90
2023-05-10T14:15:38.004Z,1.70
2023-05-10T14:18:23.651Z,2.50
2023-05-10T14:21:10.566Z,11.40
2023-05-10T14:23:57.611Z,2.50
2023-05-10T14:29:28.432Z,1.80
2023-05-10T14:35:00.178Z,2.70
2023-05-10T14:37:45.991Z,7.00
2023-05-10T14:40:31.693Z,10.80
2023-05-10T14:43:17.218Z,2.80
2023-05-10T14:46:02.583Z,14.60
2023-05-10T14:48:48.613Z,9.10
2023-05-10T14:51:34.440Z,8.30
2023-05-10T14:57:05.845Z,8.90
2023-05-10T14:59:51.032Z,9.90
2023-05-10T15:02:37.415Z,12.90
2023-05-10T15:05:24.022Z,5.70
2023-05-10T15:08:09.947Z,4.80
2023-05-10T15:10:56.437Z,7.10
2023-05-10T15:13:41.910Z,7.10
2023-05-10T15:16:28.682Z,2.60
2023-05-10T15:19:19.176Z,1.80
2023-05-10T15:22:05.978Z,4.20
2023-05-10T15:24:53.749Z,4.40
2023-05-10T15:27:40.323Z,3.10
2023-05-10T15:30:26.854Z,1.80
2023-05-10T15:33:12.701Z,2.30
2023-05-10T15:35:58.410Z,6.40
2023-05-10T15:38:44.372Z,5.90
2023-05-10T15:41:30.572Z,6.00
2023-05-10T15:44:16.227Z,2.80
2023-05-10T15:47:03.211Z,11.20
2023-05-10T15:49:49.000Z,3.10
2023-05-10T15:52:36.617Z,9.70
2023-05-10T15:55:21.932Z,10.50
2023-05-10T16:01:26.214Z,2.20
2023-05-10T16:04:13.377Z,2.10
2023-05-10T16:06:59.121Z,4.40
2023-05-10T16:09:44.530Z,2.30
2023-05-10T16:12:30.835Z,4.20
2023-05-10T16:15:16.680Z,5.30
2023-05-10T16:18:03.180Z,4.70
2023-05-10T16:20:48.996Z,3.10
2023-05-10T16:23:34.635Z,12.80
2023-05-10T16:34:17.752Z,8.20
2023-05-10T16:41:52.638Z,16.70
2023-05-10T16:45:23.517Z,17.00
2023-05-10T16:56:38.093Z,4.30
2023-05-10T16:59:24.393Z,9.10
2023-05-10T17:02:09.737Z,10.70
2023-05-10T17:04:55.642Z,23.00
2023-05-10T17:07:41.355Z,9.70
2023-05-10T17:10:27.141Z,7.10
2023-05-10T17:13:12.702Z,4.10
2023-05-10T17:15:58.327Z,8.20
2023-05-10T17:21:31.519Z,6.10
2023-05-10T17:24:16.948Z,6.30
2023-05-10T17:27:03.100Z,7.60
2023-05-10T17:29:48.670Z,9.10
2023-05-10T17:32:34.327Z,7.50
2023-05-10T17:35:20.971Z,7.30
2023-05-10T17:38:07.292Z,6.10
2023-05-10T17:40:52.841Z,8.50
2023-05-10T17:43:39.982Z,6.50
2023-05-10T17:46:25.814Z,7.20
2023-05-10T17:49:11.016Z,12.60
2023-05-10T17:51:56.693Z,30.90
2023-05-10T17:54:42.398Z,17.20
2023-05-10T17:57:27.521Z,10.20
2023-05-10T18:00:13.852Z,10.00
2023-05-10T18:03:00.800Z,13.10
2023-05-10T18:05:47.377Z,9.40
2023-05-10T18:08:34.357Z,12.70
2023-05-10T18:11:19.711Z,11.20
2023-05-10T18:14:05.206Z,6.90
2023-05-10T18:16:51.208Z,9.10
2023-05-10T18:19:36.720Z,12.20
2023-05-10T18:22:22.329Z,15.00
2023-05-10T18:25:08.076Z,13.80
2023-05-10T18:27:53.907Z,10.30
2023-05-10T18:30:40.405Z,7.10
2023-05-10T18:36:11.857Z,3.40
2023-05-10T18:38:57.688Z,3.50
2023-05-10T18:41:45.091Z,2.80
2023-05-10T18:44:30.761Z,4.30
2023-05-10T18:47:15.902Z,3.60
2023-05-10T18:50:04.741Z,7.40
2023-05-10T18:52:50.174Z,5.10
2023-05-10T18:55:35.561Z,4.10
2023-05-10T18:58:21.596Z,4.30
2023-05-10T19:01:07.714Z,6.20
2023-05-10T19:06:39.530Z,7.60
2023-05-10T19:09:26.150Z,8.10
2023-05-10T19:14:56.754Z,6.20
2023-05-10T19:17:45.644Z,9.60
2023-05-10T19:20:31.383Z,10.90
2023-05-10T19:23:17.188Z,12.90
2023-05-10T19:26:02.703Z,10.90
2023-05-10T19:28:51.115Z,10.00
2023-05-10T19:31:36.803Z,9.30
2023-05-10T19:34:22.363Z,9.60
2023-05-10T19:37:07.984Z,4.70
2023-05-10T19:39:53.728Z,6.70
2023-05-10T19:42:38.987Z,10.20
2023-05-10T19:45:24.637Z,4.60
2023-05-10T19:48:10.165Z,4.40
2023-05-10T19:51:01.597Z,13.30
2023-05-10T19:53:46.701Z,23.90
2023-05-10T19:56:32.381Z,17.00
2023-05-10T19:59:18.072Z,19.20
2023-05-10T20:02:06.796Z,10.90
2023-05-10T20:04:51.943Z,8.00
2023-05-10T20:07:37.330Z,9.30
2023-05-10T20:10:24.650Z,5.70
2023-05-10T20:13:11.832Z,8.20
2023-05-10T20:16:00.953Z,10.40
2023-05-10T20:18:46.455Z,13.70
2023-05-10T20:21:32.977Z,6.00
2023-05-10T20:24:18.777Z,7.00
2023-05-10T20:27:04.381Z,6.00
2023-05-10T20:29:49.607Z,10.40
2023-05-10T20:32:35.120Z,16.90
2023-05-10T20:35:20.579Z,7.20
2023-05-10T20:38:05.968Z,7.40
2023-05-10T20:40:51.674Z,13.60
2023-05-10T20:43:37.224Z,21.70
2023-05-10T20:46:23.107Z,19.60
2023-05-10T20:49:10.292Z,16.30
2023-05-10T20:51:56.297Z,12.40
2023-05-10T20:54:42.519Z,12.00
2023-05-10T20:57:28.202Z,11.10
2023-05-10T21:00:14.060Z,10.30
2023-05-10T21:02:59.459Z,13.10
2023-05-10T21:05:44.726Z,17.60
2023-05-10T21:08:30.152Z,17.70
2023-05-10T21:11:15.461Z,18.20
2023-05-10T21:14:01.868Z,17.90
2023-05-10T21:16:47.107Z,20.80
2023-05-10T21:19:32.331Z,19.40
2023-05-10T21:22:18.010Z,17.30
2023-05-10T21:25:03.485Z,19.70
2023-05-10T21:27:48.870Z,18.20
2023-05-10T21:30:34.496Z,17.80
2023-05-10T21:33:20.093Z,18.00
2023-05-10T21:36:05.747Z,17.30
2023-05-10T21:38:51.452Z,17.60
2023-05-10T21:41:36.960Z,19.40
2023-05-10T21:44:22.493Z,20.50
2023-05-10T21:47:08.156Z,17.00
2023-05-10T21:49:53.593Z,14.60
2023-05-10T21:52:38.871Z,10.50
2023-05-10T21:55:24.423Z,9.70
2023-05-10T21:58:10.510Z,10.90
2023-05-10T22:00:56.497Z,9.20
2023-05-10T22:03:42.035Z,7.20
2023-05-10T22:06:27.497Z,6.20
2023-05-10T22:09:13.137Z,9.90
2023-05-10T22:11:58.382Z,6.80
2023-05-10T22:14:45.466Z,6.40
2023-05-10T22:17:31.063Z,7.70
2023-05-10T22:20:16.507Z,6.50
2023-05-10T22:23:02.468Z,5.80
2023-05-10T22:25:48.237Z,7.00
2023-05-10T22:28:35.819Z,7.30
2023-05-10T22:31:21.507Z,8.50
2023-05-10T22:34:07.044Z,7.80
2023-05-10T22:36:53.291Z,7.50
2023-05-10T22:39:38.660Z,6.30
2023-05-10T22:42:23.715Z,7.40
2023-05-10T22:45:10.945Z,7.10
2023-05-10T22:47:56.260Z,6.40
2023-05-10T22:50:42.184Z,6.20
2023-05-10T22:53:27.492Z,5.50
2023-05-10T22:56:13.290Z,5.80
2023-05-10T22:59:01.204Z,6.30
2023-05-10T23:01:48.730Z,6.20
2023-05-10T23:04:34.669Z,7.30
2023-05-10T23:07:20.013Z,5.80
2023-05-10T23:10:05.955Z,6.50
2023-05-10T23:12:51.513Z,6.60
2023-05-10T23:15:36.796Z,7.30
2023-05-10T23:18:22.245Z,6.60
2023-05-10T23:21:07.472Z,5.80
2023-05-10T23:23:54.193Z,5.80
2023-05-10T23:26:39.942Z,4.10
2023-05-10T23:29:26.209Z,4.60
2023-05-10T23:32:12.491Z,4.40
2023-05-10T23:34:57.969Z,3.80
2023-05-10T23:37:43.306Z,3.90
2023-05-10T23:40:28.541Z,4.20
2023-05-10T23:43:15.631Z,5.30
2023-05-10T23:46:01.698Z,5.70
2023-05-10T23:48:47.237Z,5.70
2023-05-10T23:51:33.353Z,5.60
2023-05-10T23:54:18.691Z,4.70
2023-05-10T23:57:04.282Z,4.90
2023-05-10T23:59:50.021Z,4.10
